createdAt,value
2023-05-18T00:00:14.690Z,101089.03
2023-05-18T00:02:48.469Z,101095.69
2023-05-18T00:05:18.300Z,101085.22
2023-05-18T00:07:47.008Z,101088.63
2023-05-18T00:10:16.832Z,101089.19
2023-05-18T00:12:45.322Z,101088.94
2023-05-18T00:15:15.656Z,101082.72
2023-05-18T00:17:45.658Z,101087.69
2023-05-18T00:20:15.248Z,101085.94
2023-05-18T00:22:43.691Z,101091.06
2023-05-18T00:25:12.178Z,101084.97
2023-05-18T00:27:40.708Z,101085.75
2023-05-18T00:30:10.370Z,101085.75
2023-05-18T00:32:40.942Z,101082.16
2023-05-18T00:35:10.187Z,101090.81
2023-05-18T00:37:38.645Z,101091.53
2023-05-18T00:40:09.138Z,101090.63
2023-05-18T00:42:37.660Z,101093.88
2023-05-18T00:45:08.443Z,101087.63
2023-05-18T00:47:37.085Z,101088.38
2023-05-18T00:50:09.406Z,101099.66
2023-05-18T00:52:38.778Z,101080.34
2023-05-18T00:55:08.895Z,101092.34
2023-05-18T00:57:38.325Z,101102.63
2023-05-18T01:00:10.876Z,101098.09
2023-05-18T01:02:42.914Z,101093.63
2023-05-18T01:05:13.938Z,101093.56
2023-05-18T01:07:43.925Z,101088.28
2023-05-18T01:10:16.911Z,101089.16
2023-05-18T01:12:51.477Z,101096.16
2023-05-18T01:15:24.852Z,101095.25
2023-05-18T01:18:06.249Z,101091.75
2023-05-18T01:20:46.380Z,101095.06
2023-05-18T01:23:47.162Z,101097.63
2023-05-18T01:26:24.977Z,101098.41
2023-05-18T01:28:55.483Z,101095.81
2023-05-18T01:31:24.900Z,101099.22
2023-05-18T01:33:53.853Z,101096.47
2023-05-18T01:36:22.445Z,101102.53
2023-05-18T01:38:51.637Z,101107.81
2023-05-18T01:41:24.382Z,101099.94
2023-05-18T01:44:02.639Z,101102.47
2023-05-18T01:46:38.545Z,101104.09
2023-05-18T01:49:15.738Z,101103.03
2023-05-18T01:51:47.904Z,101099.44
2023-05-18T01:54:20.912Z,101097.66
2023-05-18T01:56:54.550Z,101105.44
2023-05-18T01:59:25.003Z,101100.16
2023-05-18T02:01:59.048Z,101098.41
2023-05-18T02:04:28.904Z,101097.41
2023-05-18T02:06:57.952Z,101099.19
2023-05-18T02:09:26.651Z,101096.41
2023-05-18T02:11:56.549Z,101096.41
2023-05-18T02:14:27.166Z,101093.75
2023-05-18T02:16:57.488Z,101098.06
2023-05-18T02:19:26.427Z,101099.66
2023-05-18T02:21:56.188Z,101099.66
2023-05-18T02:24:24.830Z,101099.75
2023-05-18T02:26:53.292Z,101104.84
2023-05-18T02:29:23.465Z,101103.25
2023-05-18T02:31:52.482Z,101099.66
2023-05-18T02:34:21.998Z,101095.22
2023-05-18T02:36:50.481Z,101101.28
2023-05-18T02:39:19.331Z,101108.09
2023-05-18T02:41:47.793Z,101108.09
2023-05-18T02:44:16.168Z,101108.91
2023-05-18T02:46:46.306Z,101109.00
2023-05-18T02:49:15.011Z,101112.31
2023-05-18T02:51:44.138Z,101107.91
2023-05-18T02:54:13.286Z,101111.31
2023-05-18T02:56:43.668Z,101114.56
2023-05-18T02:59:42.109Z,101110.16
2023-05-18T03:02:16.356Z,101114.41
2023-05-18T03:04:45.538Z,101110.91
2023-05-18T03:07:15.254Z,101113.41
2023-05-18T03:09:43.726Z,101118.50
2023-05-18T03:12:12.270Z,101116.66
2023-05-18T03:14:41.713Z,101117.41
2023-05-18T03:17:11.913Z,101118.22
2023-05-18T03:19:40.450Z,101122.44
2023-05-18T03:22:09.287Z,101117.16
2023-05-18T03:24:40.277Z,101115.38
2023-05-18T03:27:16.718Z,101121.28
2023-05-18T03:29:46.318Z,101123.81
2023-05-18T03:32:16.758Z,101122.00
2023-05-18T03:34:47.636Z,101117.63
2023-05-18T03:37:17.041Z,101121.75
2023-05-18T03:39:46.879Z,101117.38
2023-05-18T03:42:16.101Z,101122.47
2023-05-18T03:44:44.698Z,101123.19
2023-05-18T03:47:14.294Z,101117.81
2023-05-18T03:49:44.318Z,101120.31
2023-05-18T03:52:15.408Z,101125.34
2023-05-18T03:54:44.247Z,101125.25
2023-05-18T03:57:12.616Z,101122.38
2023-05-18T03:59:41.136Z,101123.94
2023-05-18T04:02:09.996Z,101119.28
2023-05-18T04:04:41.890Z,101120.88
2023-05-18T04:07:12.658Z,101121.56
2023-05-18T04:09:42.702Z,101128.41
2023-05-18T04:12:11.485Z,101126.59
2023-05-18T04:14:42.246Z,101128.19
2023-05-18T04:17:11.230Z,101133.50
2023-05-18T04:19:39.669Z,101136.97
2023-05-18T04:22:09.789Z,101132.59
2023-05-18T04:24:41.287Z,101131.78
2023-05-18T04:27:12.130Z,101142.88
2023-05-18T04:29:43.859Z,101141.06
2023-05-18T04:32:12.945Z,101148.78
2023-05-18T04:34:42.533Z,101144.31
2023-05-18T04:37:10.961Z,101142.59
2023-05-18T04:39:42.363Z,101148.59
2023-05-18T04:42:14.581Z,101151.91
2023-05-18T04:44:44.550Z,101149.13
2023-05-18T04:47:13.271Z,101149.13
2023-05-18T04:49:42.117Z,101154.31
2023-05-18T04:52:11.554Z,101149.91
2023-05-18T04:54:41.432Z,101147.34
2023-05-18T04:57:10.295Z,101147.25
2023-05-18T04:59:38.718Z,101151.28
2023-05-18T05:02:07.733Z,101149.28
2023-05-18T05:04:36.436Z,101149.13
2023-05-18T05:07:05.857Z,101154.09
2023-05-18T05:09:34.585Z,101150.56
2023-05-18T05:12:06.617Z,101147.06
2023-05-18T05:14:35.177Z,101145.88
2023-05-18T05:17:03.609Z,101155.38
2023-05-18T05:19:32.810Z,101158.75
2023-05-18T05:22:01.339Z,101155.38
2023-05-18T05:24:30.187Z,101156.16
2023-05-18T05:26:58.692Z,101164.75
2023-05-18T05:29:28.952Z,101150.06
2023-05-18T05:31:57.679Z,101154.56
2023-05-18T05:34:26.692Z,101155.47
2023-05-18T05:36:56.795Z,101163.03
2023-05-18T05:39:25.248Z,101160.25
2023-05-18T05:41:53.857Z,101163.44
2023-05-18T05:44:22.495Z,101158.19
2023-05-18T05:46:52.664Z,101169.34
2023-05-18T05:49:22.185Z,101160.78
2023-05-18T05:51:50.695Z,101162.53
2023-05-18T05:54:19.908Z,101156.53
2023-05-18T05:56:48.730Z,101153.06
2023-05-18T05:59:18.332Z,101158.34
2023-05-18T06:01:47.234Z,101166.75
2023-05-18T06:04:17.744Z,101168.53
2023-05-18T06:06:46.220Z,101170.13
2023-05-18T06:09:14.883Z,101174.31
2023-05-18T06:11:43.617Z,101179.50
2023-05-18T06:14:12.662Z,101171.72
2023-05-18T06:16:41.486Z,101164.69
2023-05-18T06:19:11.115Z,101170.94
2023-05-18T06:21:41.017Z,101173.91
2023-05-18T06:24:11.448Z,101166.22
2023-05-18T06:26:45.302Z,101172.63
2023-05-18T06:29:48.777Z,101173.41
2023-05-18T06:32:38.757Z,101180.88
2023-05-18T06:35:08.831Z,101183.59
2023-05-18T06:37:39.549Z,101185.38
2023-05-18T06:40:10.495Z,101186.47
2023-05-18T06:42:39.029Z,101193.53
2023-05-18T06:45:26.983Z,101184.84
2023-05-18T06:48:01.260Z,101191.66
2023-05-18T06:50:31.260Z,101189.88
2023-05-18T06:53:04.563Z,101189.19
2023-05-18T06:55:33.477Z,101195.22
2023-05-18T06:58:02.766Z,101192.72
2023-05-18T07:00:31.334Z,101191.16
2023-05-18T07:02:59.821Z,101198.19
2023-05-18T07:05:30.357Z,101201.69
2023-05-18T07:08:00.336Z,101200.09
2023-05-18T07:10:29.017Z,101204.47
2023-05-18T07:12:58.014Z,101195.00
2023-05-18T07:15:26.695Z,101202.97
2023-05-18T07:17:55.142Z,101198.78
2023-05-18T07:20:26.145Z,101197.34
2023-05-18T07:22:56.407Z,101203.31
2023-05-18T07:25:26.571Z,101202.44
2023-05-18T07:27:55.645Z,101212.69
2023-05-18T07:30:26.271Z,101195.53
2023-05-18T07:32:56.667Z,101201.91
2023-05-18T07:35:26.487Z,101191.72
2023-05-18T07:37:55.209Z,101193.59
2023-05-18T07:40:25.097Z,101196.28
2023-05-18T07:42:53.526Z,101205.34
2023-05-18T07:45:23.826Z,101201.22
2023-05-18T07:47:52.738Z,101198.09
2023-05-18T07:50:21.583Z,101190.19
2023-05-18T07:52:50.320Z,101187.81
2023-05-18T07:55:19.155Z,101191.72
2023-05-18T07:57:48.964Z,101185.50
2023-05-18T08:00:19.279Z,101179.66
2023-05-18T08:02:47.924Z,101185.22
2023-05-18T08:05:16.454Z,101182.06
2023-05-18T08:07:45.063Z,101180.81
2023-05-18T08:10:13.509Z,101186.84
2023-05-18T08:12:42.487Z,101180.13
2023-05-18T08:15:14.242Z,101178.53
2023-05-18T08:17:42.713Z,101177.13
2023-05-18T08:20:13.183Z,101173.28
2023-05-18T08:22:41.827Z,101173.63
2023-05-18T08:25:11.925Z,101164.38
2023-05-18T08:27:40.418Z,101169.84
2023-05-18T08:30:10.757Z,101171.97
2023-05-18T08:32:40.720Z,101165.50
2023-05-18T08:35:11.000Z,101154.72
2023-05-18T08:37:39.867Z,101157.75
2023-05-18T08:40:11.479Z,101164.06
2023-05-18T08:42:50.352Z,101172.81
2023-05-18T08:45:25.213Z,101163.44
2023-05-18T08:47:58.732Z,101163.59
2023-05-18T08:50:28.105Z,101164.66
2023-05-18T08:53:02.277Z,101166.16
2023-05-18T08:55:36.728Z,101167.28
2023-05-18T08:58:09.424Z,101158.59
2023-05-18T09:00:38.830Z,101151.94
2023-05-18T09:03:10.327Z,101153.38
2023-05-18T09:05:40.627Z,101145.00
2023-05-18T09:08:10.995Z,101143.81
2023-05-18T09:10:40.984Z,101141.56
2023-05-18T09:13:11.025Z,101136.88
2023-05-18T09:15:39.512Z,101138.72
2023-05-18T09:18:09.771Z,101137.22
2023-05-18T09:20:38.253Z,101134.00
2023-05-18T09:23:06.880Z,101124.69
2023-05-18T09:25:36.131Z,101133.75
2023-05-18T09:28:05.433Z,101127.28
2023-05-18T09:30:42.353Z,101127.59
2023-05-18T09:33:19.343Z,101124.22
2023-05-18T09:35:49.038Z,101130.34
2023-05-18T09:38:21.893Z,101136.22
2023-05-18T09:40:51.728Z,101130.03
2023-05-18T09:43:20.757Z,101138.72
2023-05-18T09:45:50.804Z,101130.19
2023-05-18T09:48:23.564Z,101131.19
2023-05-18T09:50:53.770Z,101127.72
2023-05-18T09:53:22.192Z,101131.31
2023-05-18T09:55:51.726Z,101127.31
2023-05-18T09:58:20.584Z,101138.09
2023-05-18T10:00:51.855Z,101137.56
2023-05-18T10:03:25.893Z,101128.50
2023-05-18T10:05:54.264Z,101125.22
2023-05-18T10:08:22.649Z,101126.63
2023-05-18T10:10:51.983Z,101130.50
2023-05-18T10:13:20.951Z,101126.69
2023-05-18T10:15:54.004Z,101121.84
2023-05-18T10:18:26.240Z,101124.00
2023-05-18T10:20:59.843Z,101113.59
2023-05-18T10:23:32.994Z,101113.97
2023-05-18T10:26:01.697Z,101110.06
2023-05-18T10:28:34.733Z,101111.50
2023-05-18T10:31:04.401Z,101103.97
2023-05-18T10:33:37.391Z,101107.03
2023-05-18T10:36:08.591Z,101104.78
2023-05-18T10:38:40.608Z,101090.41
2023-05-18T10:41:11.180Z,101086.44
2023-05-18T10:43:39.868Z,101091.13
2023-05-18T10:46:08.815Z,101088.88
2023-05-18T10:48:41.717Z,101087.34
2023-05-18T10:51:10.528Z,101076.81
2023-05-18T10:53:44.064Z,101073.47
2023-05-18T10:56:12.912Z,101072.84
2023-05-18T10:58:41.736Z,101076.72
2023-05-18T11:01:14.450Z,101081.44
2023-05-18T11:03:44.550Z,101084.25
2023-05-18T11:06:15.199Z,101084.56
2023-05-18T11:08:45.620Z,101080.53
2023-05-18T11:11:15.958Z,101074.75
2023-05-18T11:13:49.315Z,101074.28
2023-05-18T11:16:18.418Z,101072.81
2023-05-18T11:18:50.392Z,101064.25
2023-05-18T11:21:53.612Z,101059.66
2023-05-18T11:24:28.373Z,101059.41
2023-05-18T11:26:59.414Z,101074.22
2023-05-18T11:29:33.773Z,101063.66
2023-05-18T11:32:04.892Z,101058.59
2023-05-18T11:34:46.520Z,101055.22
2023-05-18T11:37:16.948Z,101052.31
2023-05-18T11:39:59.702Z,101065.06
2023-05-18T11:42:35.400Z,101061.34
2023-05-18T11:45:12.011Z,101053.78
2023-05-18T11:47:42.183Z,101047.97
2023-05-18T11:50:13.356Z,101035.88
2023-05-18T11:52:49.499Z,101042.16
2023-05-18T11:55:21.744Z,101042.34
2023-05-18T11:57:52.785Z,101041.59
2023-05-18T12:00:22.992Z,101043.47
2023-05-18T12:02:52.822Z,101047.00
2023-05-18T12:05:23.923Z,101036.69
2023-05-18T12:07:54.923Z,101035.97
2023-05-18T12:10:25.740Z,101021.47
2023-05-18T12:12:55.151Z,101013.03
2023-05-18T12:15:25.309Z,101017.38
2023-05-18T12:17:54.286Z,101034.03
2023-05-18T12:20:26.717Z,101022.03
2023-05-18T12:22:56.945Z,101024.66
2023-05-18T12:25:27.939Z,101018.59
2023-05-18T12:27:57.834Z,101014.25
2023-05-18T12:30:35.895Z,101004.78
2023-05-18T12:33:07.061Z,101011.19
2023-05-18T12:35:37.195Z,101020.28
2023-05-18T12:38:05.849Z,101008.31
2023-05-18T12:40:44.902Z,101009.38
2023-05-18T12:43:14.111Z,101011.38
2023-05-18T12:45:45.384Z,101008.03
2023-05-18T12:48:15.462Z,101000.38
2023-05-18T12:50:49.512Z,101010.94
2023-05-18T12:53:18.494Z,101001.50
2023-05-18T12:55:48.020Z,101003.44
2023-05-18T12:58:19.219Z,101001.78
2023-05-18T13:00:49.986Z,101003.66
2023-05-18T13:03:22.056Z,100997.56
2023-05-18T13:06:06.695Z,100991.59
2023-05-18T13:08:37.192Z,100990.03
2023-05-18T13:11:13.614Z,100994.50
2023-05-18T13:14:02.315Z,100987.53
2023-05-18T13:16:31.763Z,100978.94
2023-05-18T13:19:02.530Z,100979.94
2023-05-18T13:21:32.590Z,100979.09
2023-05-18T13:24:01.201Z,100965.25
2023-05-18T13:26:30.241Z,100967.28
2023-05-18T13:29:00.263Z,100970.13
2023-05-18T13:31:30.495Z,100969.31
2023-05-18T13:33:59.171Z,100968.41
2023-05-18T13:36:29.692Z,100974.69
2023-05-18T13:39:00.154Z,100969.56
2023-05-18T13:41:28.832Z,100960.59
2023-05-18T13:43:57.158Z,100961.41
2023-05-18T13:46:26.356Z,100954.59
2023-05-18T13:48:54.803Z,100945.22
2023-05-18T13:51:23.481Z,100949.75
2023-05-18T13:53:51.911Z,100942.84
2023-05-18T13:56:22.451Z,100946.44
2023-05-18T13:58:51.280Z,100943.94
2023-05-18T14:01:22.264Z,100937.03
2023-05-18T14:03:50.733Z,100932.75
2023-05-18T14:06:20.873Z,100929.31
2023-05-18T14:08:49.284Z,100929.31
2023-05-18T14:11:17.878Z,100933.81
2023-05-18T14:13:47.862Z,100927.63
2023-05-18T14:16:16.436Z,100921.59
2023-05-18T14:18:44.917Z,100920.03
2023-05-18T14:21:13.859Z,100913.97
2023-05-18T14:23:42.593Z,100910.44
2023-05-18T14:26:11.330Z,100915.69
2023-05-18T14:28:39.814Z,100905.28
2023-05-18T14:31:09.657Z,100906.28
2023-05-18T14:33:38.143Z,100903.69
2023-05-18T14:36:07.047Z,100909.69
2023-05-18T14:38:35.707Z,100909.56
2023-05-18T14:41:04.209Z,100906.84
2023-05-18T14:43:32.658Z,100913.75
2023-05-18T14:46:08.582Z,100903.28
2023-05-18T14:48:38.974Z,100905.22
2023-05-18T14:51:07.854Z,100904.38
2023-05-18T14:53:36.561Z,100911.66
2023-05-18T14:56:08.526Z,100915.28
2023-05-18T14:58:37.732Z,100908.22
2023-05-18T15:01:07.148Z,100903.56
2023-05-18T15:03:35.641Z,100907.75
2023-05-18T15:06:06.007Z,100908.69
2023-05-18T15:08:34.924Z,100909.69
2023-05-18T15:11:03.279Z,100907.97
2023-05-18T15:13:31.920Z,100907.75
2023-05-18T15:16:00.704Z,100908.53
2023-05-18T15:18:29.235Z,100909.41
2023-05-18T15:20:57.987Z,100905.22
2023-05-18T15:23:28.000Z,100909.69
2023-05-18T15:25:57.299Z,100900.88
2023-05-18T15:28:26.059Z,100899.09
2023-05-18T15:30:54.484Z,100905.22
2023-05-18T15:33:23.777Z,100899.06
2023-05-18T15:35:53.355Z,100902.59
2023-05-18T15:38:22.098Z,100905.28
2023-05-18T15:40:52.455Z,100907.06
2023-05-18T15:43:23.213Z,100891.34
2023-05-18T15:45:52.142Z,100897.34
2023-05-18T15:48:20.945Z,100890.28
2023-05-18T15:50:50.082Z,100889.38
2023-05-18T15:53:18.434Z,100891.22
2023-05-18T15:55:47.289Z,100887.66
2023-05-18T15:58:17.140Z,100890.22
2023-05-18T16:00:46.243Z,100878.91
2023-05-18T16:03:15.029Z,100883.16
2023-05-18T16:05:44.208Z,100884.81
2023-05-18T16:08:12.655Z,100875.16
2023-05-18T16:10:41.498Z,100878.66
2023-05-18T16:13:10.036Z,100875.22
2023-05-18T16:15:40.156Z,100883.06
2023-05-18T16:18:08.727Z,100876.88
2023-05-18T16:20:37.334Z,100876.81
2023-05-18T16:23:06.270Z,100879.31
2023-05-18T16:25:34.776Z,100873.06
2023-05-18T16:28:03.447Z,100872.09
2023-05-18T16:30:32.268Z,100873.81
2023-05-18T16:33:02.564Z,100874.66
2023-05-18T16:35:31.844Z,100866.72
2023-05-18T16:38:01.227Z,100876.31
2023-05-18T16:40:30.686Z,100871.13
2023-05-18T16:42:59.919Z,100865.06
2023-05-18T16:45:28.466Z,100864.22
2023-05-18T16:47:57.046Z,100873.81
2023-05-18T16:50:27.897Z,100869.41
2023-05-18T16:52:56.691Z,100884.94
2023-05-18T16:55:25.237Z,100871.59
2023-05-18T16:57:54.306Z,100873.19
2023-05-18T17:00:23.536Z,100870.56
2023-05-18T17:02:52.671Z,100869.56
2023-05-18T17:05:23.003Z,100866.91
2023-05-18T17:07:54.130Z,100876.50
2023-05-18T17:10:23.038Z,100872.09
2023-05-18T17:12:51.787Z,100871.97
2023-05-18T17:15:20.542Z,100870.13
2023-05-18T17:17:49.217Z,100875.22
2023-05-18T17:20:17.819Z,100867.16
2023-05-18T17:22:46.525Z,100865.22
2023-05-18T17:25:16.569Z,100866.81
2023-05-18T17:27:45.383Z,100873.72
2023-05-18T17:30:14.224Z,100860.56
2023-05-18T17:32:44.632Z,100859.63
2023-05-18T17:35:14.499Z,100863.84
2023-05-18T17:37:43.164Z,100867.94
2023-05-18T17:40:12.983Z,100855.44
2023-05-18T17:42:42.889Z,100867.59
2023-05-18T17:45:12.190Z,100861.41
2023-05-18T17:47:41.710Z,100861.41
2023-05-18T17:50:13.373Z,100870.06
2023-05-18T17:52:41.940Z,100863.13
2023-05-18T17:55:11.125Z,100857.88
2023-05-18T17:57:45.158Z,100870.16
2023-05-18T18:00:17.685Z,100870.16
2023-05-18T18:02:46.172Z,100868.34
2023-05-18T18:05:14.764Z,100873.50
2023-05-18T18:07:43.442Z,100867.31
2023-05-18T18:10:12.478Z,100871.63
2023-05-18T18:12:41.172Z,100874.13
2023-05-18T18:15:12.154Z,100874.13
2023-05-18T18:17:42.064Z,100872.31
2023-05-18T18:20:12.065Z,100874.03
2023-05-18T18:22:40.542Z,100874.94
2023-05-18T18:25:09.764Z,100875.84
2023-05-18T18:27:38.462Z,100875.84
2023-05-18T18:30:08.819Z,100874.88
2023-05-18T18:32:38.288Z,100879.16
2023-05-18T18:35:09.626Z,100888.78
2023-05-18T18:37:38.544Z,100884.38
2023-05-18T18:40:09.167Z,100891.31
2023-05-18T18:42:37.682Z,100890.16
2023-05-18T18:45:07.546Z,100890.72
2023-05-18T18:47:36.231Z,100892.22
2023-05-18T18:50:05.383Z,100885.94
2023-05-18T18:52:35.432Z,100886.81
2023-05-18T18:55:04.890Z,100890.31
2023-05-18T18:57:34.304Z,100897.31
2023-05-18T19:00:02.877Z,100900.75
2023-05-18T19:02:31.892Z,100894.69
2023-05-18T19:05:00.667Z,100907.56
2023-05-18T19:07:29.235Z,100906.50
2023-05-18T19:09:59.522Z,100902.06
2023-05-18T19:12:28.221Z,100906.34
2023-05-18T19:14:57.205Z,100905.47
2023-05-18T19:17:26.576Z,100911.50
2023-05-18T19:19:55.465Z,100911.50
2023-05-18T19:22:23.901Z,100913.22
2023-05-18T19:24:53.402Z,100908.75
2023-05-18T19:27:23.223Z,100914.88
2023-05-18T19:29:52.413Z,100908.75
2023-05-18T19:32:21.208Z,100917.25
2023-05-18T19:34:49.844Z,100909.31
2023-05-18T19:37:18.477Z,100919.66
2023-05-18T19:39:47.079Z,100924.03
2023-05-18T19:42:15.691Z,100918.81
2023-05-18T19:44:45.966Z,100924.88
2023-05-18T19:47:15.464Z,100923.09
2023-05-18T19:49:44.567Z,100921.44
2023-05-18T19:52:14.491Z,100927.63
2023-05-18T19:54:42.938Z,100932.78
2023-05-18T19:57:11.564Z,100923.97
2023-05-18T19:59:40.710Z,100925.75
2023-05-18T20:02:10.570Z,100933.53
2023-05-18T20:04:39.204Z,100943.09
2023-05-18T20:07:08.308Z,100936.97
2023-05-18T20:09:36.944Z,100940.47
2023-05-18T20:12:06.326Z,100951.66
2023-05-18T20:14:36.709Z,100943.59
2023-05-18T20:17:05.384Z,100939.94
2023-05-18T20:19:37.789Z,100952.03
2023-05-18T20:22:09.129Z,100944.91
2023-05-18T20:24:38.682Z,100957.09
2023-05-18T20:27:07.768Z,100959.63
2023-05-18T20:29:36.318Z,100951.88
2023-05-18T20:32:04.976Z,100955.31
2023-05-18T20:34:35.194Z,100953.66
2023-05-18T20:37:04.140Z,100952.75
2023-05-18T20:39:33.219Z,100963.22
2023-05-18T20:42:03.216Z,100957.09
2023-05-18T20:44:31.826Z,100964.88
2023-05-18T20:47:01.094Z,100960.50
2023-05-18T20:49:29.797Z,100967.34
2023-05-18T20:51:59.907Z,100966.44
2023-05-18T20:54:28.500Z,100965.47
2023-05-18T20:56:57.310Z,100968.06
2023-05-18T20:59:25.905Z,100961.06
2023-05-18T21:01:56.600Z,100970.66
2023-05-18T21:04:25.460Z,100965.44
2023-05-18T21:06:53.880Z,100974.19
2023-05-18T21:09:23.860Z,100963.72
2023-05-18T21:11:52.355Z,100975.00
2023-05-18T21:14:20.963Z,100973.94
2023-05-18T21:16:49.393Z,100973.69
2023-05-18T21:19:18.035Z,100970.94
2023-05-18T21:21:46.568Z,100977.84
2023-05-18T21:24:15.043Z,100974.34
2023-05-18T21:26:44.925Z,100982.22
2023-05-18T21:29:13.288Z,100970.91
2023-05-18T21:31:42.152Z,100969.22
2023-05-18T21:34:10.729Z,100973.53
2023-05-18T21:36:39.429Z,100966.53
2023-05-18T21:39:09.620Z,100970.91
2023-05-18T21:41:40.281Z,100972.63
2023-05-18T21:44:10.725Z,100974.34
2023-05-18T21:46:39.346Z,100972.56
2023-05-18T21:49:08.482Z,100974.22
2023-05-18T21:51:37.575Z,100972.41
2023-05-18T21:54:06.591Z,100976.78
2023-05-18T21:56:36.948Z,100966.34
2023-05-18T21:59:05.395Z,100968.88
2023-05-18T22:01:35.948Z,100976.72
2023-05-18T22:04:04.975Z,100981.03
2023-05-18T22:06:33.519Z,100986.13
2023-05-18T22:09:02.067Z,100985.19
2023-05-18T22:11:30.945Z,100978.94
2023-05-18T22:13:59.494Z,100982.41
2023-05-18T22:16:28.287Z,100973.59
2023-05-18T22:18:58.569Z,100977.03
2023-05-18T22:21:27.483Z,100970.84
2023-05-18T22:23:56.520Z,100970.81
2023-05-18T22:26:25.325Z,100966.28
2023-05-18T22:28:53.792Z,100977.63
2023-05-18T22:31:22.385Z,100970.56
2023-05-18T22:33:53.929Z,100979.22
2023-05-18T22:36:25.011Z,100970.44
2023-05-18T22:38:53.433Z,100976.50
2023-05-18T22:41:22.524Z,100974.72
2023-05-18T22:43:50.953Z,100978.97
2023-05-18T22:46:20.151Z,100974.56
2023-05-18T22:48:48.781Z,100979.75
2023-05-18T22:51:18.562Z,100973.66
2023-05-18T22:53:48.411Z,100970.97
2023-05-18T22:56:20.120Z,100972.69
2023-05-18T22:58:48.547Z,100983.03
2023-05-18T23:01:17.002Z,100979.50
2023-05-18T23:03:45.640Z,100981.22
2023-05-18T23:06:14.154Z,100976.81
2023-05-18T23:08:43.329Z,100975.84
2023-05-18T23:11:13.185Z,100979.28
2023-05-18T23:13:41.833Z,100976.56
2023-05-18T23:16:10.412Z,100973.78
2023-05-18T23:18:39.068Z,100967.56
2023-05-18T23:21:09.055Z,100977.91
2023-05-18T23:23:37.866Z,100970.78
2023-05-18T23:26:06.426Z,100970.72
2023-05-18T23:28:37.499Z,100978.44
2023-05-18T23:31:05.919Z,100966.22
2023-05-18T23:33:35.553Z,100966.13
2023-05-18T23:36:08.724Z,100960.81
2023-05-18T23:38:40.955Z,100958.94
2023-05-18T23:41:10.825Z,100961.50
2023-05-18T23:43:42.368Z,100960.63
2023-05-18T23:46:12.264Z,100956.16
2023-05-18T23:48:41.740Z,100953.53
2023-05-18T23:51:12.514Z,100950.81
2023-05-18T23:53:41.196Z,100954.25
2023-05-18T23:56:12.469Z,100950.66
2023-05-18T23:58:44.810Z,100947.09
